Time;durP1;ratioP1;P1;durP2;ratioP2;P2;SDS_P1;SDS_P2;PMS_P1;PMS_P2;Temp;Humidity;BMP_temperature;BMP_pressure;BME280_temperature;BME280_humidity;BME280_pressure;Samples;Min_cycle;Max_cycle;Signal;HPM_P1;HPM_P2
2023/08/13 00:00:27;;;;;;;18.17;16.57;;;19.40;99.90;;;;;;5090558;28;20510;-67
2023/08/13 00:02:55;;;;;;;19.60;17.90;;;19.40;99.90;;;;;;5089325;28;20496;-65
2023/08/13 00:05:24;;;;;;;19.27;17.70;;;19.40;99.90;;;;;;5090106;28;20523;-67
2023/08/13 00:07:52;;;;;;;19.40;17.70;;;19.40;99.90;;;;;;5090461;28;20442;-67
2023/08/13 00:10:21;;;;;;;18.77;16.87;;;19.40;99.90;;;;;;5090236;28;20482;-67
2023/08/13 00:12:49;;;;;;;18.83;17.20;;;19.30;99.90;;;;;;5089160;28;20453;-66
2023/08/13 00:15:17;;;;;;;20.60;18.80;;;19.30;99.90;;;;;;5090106;28;20458;-67
2023/08/13 00:17:45;;;;;;;18.97;17.37;;;19.20;99.90;;;;;;5090052;28;20491;-67
2023/08/13 00:20:13;;;;;;;19.00;17.53;;;19.30;99.90;;;;;;5090028;28;20470;-67
2023/08/13 00:22:42;;;;;;;23.20;21.00;;;19.30;99.90;;;;;;5088712;28;20446;-67
2023/08/13 00:25:10;;;;;;;20.40;18.80;;;19.10;99.90;;;;;;5089953;28;20975;-67
2023/08/13 00:27:39;;;;;;;20.50;18.60;;;19.10;99.90;;;;;;5090200;28;20442;-67
2023/08/13 00:30:09;;;;;;;20.90;18.97;;;19.10;99.90;;;;;;5089979;28;20533;-67
2023/08/13 00:32:37;;;;;;;21.90;19.87;;;19.10;99.90;;;;;;5088725;28;20500;-66
2023/08/13 00:35:06;;;;;;;20.17;18.37;;;19.10;99.90;;;;;;5090025;28;20486;-66
2023/08/13 00:37:35;;;;;;;20.50;18.43;;;19.10;99.90;;;;;;5089640;28;20438;-67
2023/08/13 00:40:04;;;;;;;18.40;16.90;;;19.10;99.90;;;;;;5089496;28;20826;-68
2023/08/13 00:42:33;;;;;;;16.90;15.60;;;19.10;99.90;;;;;;5088819;28;20540;-67
2023/08/13 00:45:02;;;;;;;18.63;17.10;;;19.20;99.90;;;;;;5089541;28;21040;-67
2023/08/13 00:47:31;;;;;;;17.50;16.00;;;19.20;99.90;;;;;;5090167;28;20537;-67
2023/08/13 00:49:59;;;;;;;18.93;17.37;;;19.20;99.90;;;;;;5089965;28;20486;-67
2023/08/13 00:52:27;;;;;;;17.60;16.10;;;19.10;99.90;;;;;;5088762;28;20471;-67
2023/08/13 00:54:55;;;;;;;16.70;15.40;;;19.00;99.90;;;;;;5089447;28;20502;-67
2023/08/13 00:57:23;;;;;;;15.83;14.63;;;18.90;99.90;;;;;;5089673;28;20977;-67
2023/08/13 00:59:52;;;;;;;17.80;16.10;;;18.80;99.90;;;;;;5089934;28;20888;-67
2023/08/13 01:02:22;;;;;;;16.17;14.70;;;18.80;99.90;;;;;;5089184;28;20529;-67
2023/08/13 01:04:50;;;;;;;15.33;14.20;;;18.80;99.90;;;;;;5089544;28;20523;-67
2023/08/13 01:07:25;;;;;;;16.30;14.97;;;18.80;99.90;;;;;;5089651;28;20441;-67
2023/08/13 01:10:04;;;;;;;21.80;14.57;;;18.90;99.90;;;;;;5089585;28;20947;-67
2023/08/13 01:12:41;;;;;;;28.10;15.60;;;18.90;99.90;;;;;;5088642;28;20450;-66
2023/08/13 01:15:15;;;;;;;24.60;15.20;;;18.90;99.90;;;;;;5093809;28;20458;-67
2023/08/13 01:17:45;;;;;;;24.93;15.07;;;19.00;99.90;;;;;;5093619;28;20438;-66
2023/08/13 01:20:14;;;;;;;31.20;13.70;;;19.00;99.90;;;;;;5093513;28;20482;-67
2023/08/13 01:22:48;;;;;;;18.57;14.73;;;19.00;99.90;;;;;;5092155;28;20473;-67
2023/08/13 01:25:17;;;;;;;16.03;14.43;;;18.90;99.90;;;;;;5093489;28;20469;-66
2023/08/13 01:27:53;;;;;;;45.03;18.57;;;18.70;99.90;;;;;;5093288;28;20452;-67
2023/08/13 01:30:27;;;;;;;30.10;17.00;;;18.80;99.90;;;;;;5093431;28;20883;-67
2023/08/13 01:32:58;;;;;;;30.40;16.60;;;18.80;99.90;;;;;;5092192;28;20433;-67
2023/08/13 01:35:27;;;;;;;49.47;17.20;;;18.90;99.90;;;;;;5093518;28;20467;-67
2023/08/13 01:37:58;;;;;;;41.63;16.43;;;18.90;99.90;;;;;;5093648;28;20855;-66
2023/08/13 01:40:27;;;;;;;23.83;17.20;;;18.90;99.90;;;;;;5093376;28;20477;-67
2023/08/13 01:42:55;;;;;;;23.97;16.43;;;18.90;99.90;;;;;;5092103;28;20453;-67
2023/08/13 01:45:23;;;;;;;20.93;16.20;;;18.90;99.90;;;;;;5093158;28;20462;-67
2023/08/13 01:47:52;;;;;;;24.47;15.80;;;18.80;99.90;;;;;;5093089;28;20926;-67
2023/08/13 01:50:21;;;;;;;25.67;14.90;;;18.80;99.90;;;;;;5093070;28;20442;-67
2023/08/13 01:52:49;;;;;;;16.67;14.03;;;18.70;99.90;;;;;;5091928;28;20442;-67
2023/08/13 01:55:19;;;;;;;35.40;15.23;;;18.70;99.90;;;;;;5092826;28;20877;-67
2023/08/13 01:57:47;;;;;;;20.43;13.57;;;18.70;99.90;;;;;;5092922;28;20442;-66
2023/08/13 02:00:15;;;;;;;26.60;14.17;;;18.80;99.90;;;;;;5092943;28;20485;-66
2023/08/13 02:02:43;;;;;;;46.67;14.43;;;18.80;99.90;;;;;;5090233;28;20442;-66
2023/08/13 02:05:11;;;;;;;15.27;13.97;;;18.70;99.90;;;;;;5092227;28;21024;-67
2023/08/13 02:07:39;;;;;;;18.80;15.93;;;18.70;99.90;;;;;;5092716;28;20446;-67
2023/08/13 02:10:07;;;;;;;14.50;13.20;;;18.60;99.90;;;;;;5092585;28;20545;-67
2023/08/13 02:12:36;;;;;;;15.37;14.27;;;18.60;99.90;;;;;;5091461;28;20441;-67
2023/08/13 02:15:05;;;;;;;15.37;14.10;;;18.60;99.90;;;;;;5092785;28;20874;-67
2023/08/13 02:17:33;;;;;;;15.77;14.47;;;18.70;99.90;;;;;;5092423;28;20515;-67
2023/08/13 02:20:01;;;;;;;15.67;14.37;;;18.90;99.90;;;;;;5092364;28;20516;-67
2023/08/13 02:22:29;;;;;;;16.30;14.83;;;18.80;99.90;;;;;;5091202;28;20461;-67
2023/08/13 02:24:57;;;;;;;14.70;13.20;;;18.80;99.90;;;;;;5090601;28;20500;-67
2023/08/13 02:27:25;;;;;;;14.63;13.50;;;18.80;99.90;;;;;;5092235;28;20442;-67
2023/08/13 02:29:55;;;;;;;14.97;13.70;;;18.80;99.90;;;;;;5092265;28;20461;-67
2023/08/13 02:32:23;;;;;;;14.77;13.57;;;18.90;99.90;;;;;;5091376;28;20495;-66
2023/08/13 02:34:51;;;;;;;17.60;14.30;;;18.80;99.90;;;;;;5091879;28;20469;-67
2023/08/13 02:37:19;;;;;;;13.50;12.50;;;18.80;99.90;;;;;;5091826;28;20529;-66
2023/08/13 02:39:46;;;;;;;13.47;12.47;;;18.90;99.90;;;;;;5091869;28;20506;-67
2023/08/13 02:42:15;;;;;;;15.57;14.37;;;18.80;99.90;;;;;;5091570;28;20952;-67
2023/08/13 02:44:43;;;;;;;14.13;13.10;;;18.70;99.90;;;;;;5091354;28;20484;-67
2023/08/13 02:47:12;;;;;;;14.27;13.20;;;18.80;99.90;;;;;;5091997;28;20437;-67
2023/08/13 02:49:40;;;;;;;13.30;12.30;;;18.80;99.90;;;;;;5092060;28;20534;-67
2023/08/13 02:52:08;;;;;;;14.33;12.93;;;18.70;99.90;;;;;;5091180;28;20438;-67
2023/08/13 02:54:36;;;;;;;14.67;13.13;;;18.70;99.90;;;;;;5090823;28;20870;-67
2023/08/13 02:57:04;;;;;;;12.70;11.70;;;18.70;99.90;;;;;;5091767;28;20530;-67
2023/08/13 02:59:32;;;;;;;12.73;11.83;;;18.60;99.90;;;;;;5091503;28;20939;-66
2023/08/13 03:02:00;;;;;;;14.77;13.37;;;18.60;99.90;;;;;;5091290;28;20528;-67
2023/08/13 03:04:30;;;;;;;14.23;13.03;;;18.60;99.90;;;;;;5090643;28;20553;-68
2023/08/13 03:06:58;;;;;;;15.50;14.00;;;18.60;99.90;;;;;;5091891;28;20444;-67
2023/08/13 03:09:26;;;;;;;14.60;13.40;;;18.70;99.90;;;;;;5091237;28;20450;-68
2023/08/13 03:11:54;;;;;;;13.80;12.60;;;18.70;99.90;;;;;;5091673;28;20525;-67
2023/08/13 03:14:22;;;;;;;17.13;15.50;;;18.60;99.90;;;;;;5090145;28;20442;-67
2023/08/13 03:16:50;;;;;;;15.30;13.80;;;18.60;99.90;;;;;;5091439;28;20499;-67
2023/08/13 03:19:18;;;;;;;13.50;12.30;;;18.60;99.90;;;;;;5091655;28;20449;-67
2023/08/13 03:21:47;;;;;;;12.90;11.80;;;18.60;99.90;;;;;;5092937;28;20482;-66
2023/08/13 03:24:15;;;;;;;14.50;13.00;;;18.70;99.90;;;;;;5091781;28;20446;-67
2023/08/13 03:26:43;;;;;;;14.03;12.83;;;18.70;99.90;;;;;;5091869;28;20525;-68
2023/08/13 03:29:11;;;;;;;13.40;12.40;;;18.70;99.90;;;;;;5092803;28;20952;-68
2023/08/13 03:31:39;;;;;;;12.87;11.87;;;18.70;99.90;;;;;;5091461;28;20525;-67
2023/08/13 03:34:07;;;;;;;12.27;11.37;;;18.70;99.90;;;;;;5090019;28;20445;-67
2023/08/13 03:36:35;;;;;;;12.40;11.40;;;18.80;99.90;;;;;;5091013;28;20438;-67
2023/08/13 03:39:05;;;;;;;14.00;13.00;;;18.90;99.90;;;;;;5091547;28;20554;-66
2023/08/13 03:41:33;;;;;;;13.60;12.50;;;18.90;99.90;;;;;;5091342;28;20577;-66
2023/08/13 03:44:00;;;;;;;13.77;12.60;;;18.80;99.90;;;;;;5089699;28;21272;-67
2023/08/13 03:46:28;;;;;;;13.10;11.90;;;18.80;99.90;;;;;;5090736;28;20512;-67
2023/08/13 03:48:56;;;;;;;13.90;12.30;;;18.80;99.90;;;;;;5091144;28;20537;-67
2023/08/13 03:51:24;;;;;;;13.63;12.43;;;18.80;99.90;;;;;;5090606;28;20450;-67
2023/08/13 03:53:52;;;;;;;13.67;12.57;;;18.70;99.90;;;;;;5089467;28;20442;-66
2023/08/13 03:56:25;;;;;;;14.83;13.43;;;18.60;99.90;;;;;;5090318;28;20494;-67
2023/08/13 03:58:53;;;;;;;13.20;12.10;;;18.60;99.90;;;;;;5090442;28;20829;-67
2023/08/13 04:01:21;;;;;;;14.93;13.63;;;18.70;99.90;;;;;;5090374;28;20481;-66
2023/08/13 04:03:50;;;;;;;16.07;14.57;;;18.70;99.90;;;;;;5088975;28;20449;-67
2023/08/13 04:06:18;;;;;;;14.00;12.77;;;18.70;99.90;;;;;;5090221;28;20466;-67
2023/08/13 04:08:46;;;;;;;15.80;14.23;;;18.70;99.90;;;;;;5090226;28;20442;-67
2023/08/13 04:11:14;;;;;;;16.97;15.30;;;18.70;99.90;;;;;;5090184;28;20996;-67
2023/08/13 04:13:44;;;;;;;14.17;13.00;;;18.70;99.90;;;;;;5089182;28;20529;-67
2023/08/13 04:16:12;;;;;;;14.70;13.60;;;18.70;99.90;;;;;;5090278;28;20545;-67
2023/08/13 04:18:40;;;;;;;20.17;15.83;;;18.70;99.90;;;;;;5090360;28;20449;-67
2023/08/13 04:21:08;;;;;;;16.90;15.20;;;18.70;99.90;;;;;;5089788;28;20545;-67
2023/08/13 04:23:36;;;;;;;15.37;13.87;;;18.70;99.90;;;;;;5089045;28;20474;-67
2023/08/13 04:26:04;;;;;;;16.10;14.70;;;18.70;99.90;;;;;;5089953;28;20463;-68
2023/08/13 04:28:32;;;;;;;19.97;15.47;;;18.70;99.90;;;;;;5090000;28;21048;-66
2023/08/13 04:31:02;;;;;;;49.17;17.70;;;18.60;99.90;;;;;;5090124;28;20888;-67
2023/08/13 04:33:30;;;;;;;25.00;16.07;;;18.60;99.90;;;;;;5088933;28;20438;-67
2023/08/13 04:35:58;;;;;;;16.67;15.00;;;18.70;99.90;;;;;;5089825;28;20469;-64
2023/08/13 04:38:26;;;;;;;19.90;16.77;;;18.60;99.90;;;;;;5089717;28;20450;-64
2023/08/13 04:40:53;;;;;;;15.30;14.00;;;18.60;99.90;;;;;;5089743;28;20499;-64
2023/08/13 04:43:21;;;;;;;15.73;14.30;;;18.70;99.90;;;;;;5088900;28;20541;-64
2023/08/13 04:45:50;;;;;;;14.80;13.40;;;18.90;99.90;;;;;;5090013;28;20463;-65
2023/08/13 04:48:40;;;;;;;16.27;13.57;;;18.90;99.90;;;;;;5089050;28;20449;-64
2023/08/13 04:51:09;;;;;;;13.77;12.77;;;19.00;99.90;;;;;;5089825;28;20896;-64
2023/08/13 04:53:37;;;;;;;14.40;13.00;;;19.00;99.90;;;;;;5088533;28;20491;-68
2023/08/13 04:56:06;;;;;;;12.93;11.90;;;19.00;99.90;;;;;;5089862;28;20523;-65
2023/08/13 04:58:34;;;;;;;12.40;11.50;;;19.10;99.90;;;;;;5089776;28;20470;-64
2023/08/13 05:01:02;;;;;;;13.13;12.13;;;19.10;99.90;;;;;;5089722;28;20481;-64
2023/08/13 05:03:30;;;;;;;12.27;11.20;;;19.20;99.90;;;;;;5088140;28;20478;-64
2023/08/13 05:05:59;;;;;;;12.67;11.17;;;19.30;99.90;;;;;;5089575;28;21033;-66
2023/08/13 05:08:28;;;;;;;13.77;12.57;;;19.20;99.90;;;;;;5089732;28;20898;-66
2023/08/13 05:10:56;;;;;;;13.20;12.20;;;19.20;99.90;;;;;;5089705;28;20483;-66
2023/08/13 05:13:24;;;;;;;12.10;11.10;;;19.20;99.90;;;;;;5088504;28;20438;-66
2023/08/13 05:15:52;;;;;;;13.00;11.90;;;19.20;99.90;;;;;;5089453;28;20514;-66
2023/08/13 05:18:20;;;;;;;12.43;11.43;;;19.20;99.90;;;;;;5089808;28;20438;-66
2023/08/13 05:20:48;;;;;;;13.17;11.90;;;19.30;99.90;;;;;;5089587;28;20840;-67
2023/08/13 05:23:16;;;;;;;13.87;12.77;;;19.30;99.90;;;;;;5088016;28;20508;-67
2023/08/13 05:25:45;;;;;;;13.77;12.50;;;19.30;99.90;;;;;;5089426;28;20578;-67
2023/08/13 05:28:13;;;;;;;12.70;11.53;;;19.30;99.90;;;;;;5089639;28;20541;-65
2023/08/13 05:30:41;;;;;;;12.93;11.90;;;19.30;99.90;;;;;;5089650;28;20801;-66
2023/08/13 05:33:09;;;;;;;12.60;11.60;;;19.30;99.90;;;;;;5088258;28;20944;-66
2023/08/13 05:35:37;;;;;;;14.43;13.17;;;19.40;99.90;;;;;;5089756;28;20457;-66
2023/08/13 05:38:05;;;;;;;12.70;11.60;;;19.50;99.90;;;;;;5089552;28;20438;-65
2023/08/13 05:40:33;;;;;;;14.93;13.57;;;19.40;99.90;;;;;;5089691;28;20914;-65
2023/08/13 05:43:02;;;;;;;12.33;11.30;;;19.40;99.90;;;;;;5088067;28;20587;-65
2023/08/13 05:45:30;;;;;;;13.40;12.30;;;19.40;99.90;;;;;;5089303;28;20497;-66
2023/08/13 05:47:58;;;;;;;16.20;13.17;;;19.40;99.90;;;;;;5089561;28;20435;-66
2023/08/13 05:50:26;;;;;;;12.40;11.40;;;19.40;99.90;;;;;;5089196;28;20454;-65
2023/08/13 05:52:54;;;;;;;13.73;12.67;;;19.50;99.90;;;;;;5087863;28;20537;-65
2023/08/13 05:55:22;;;;;;;13.60;12.57;;;19.60;99.90;;;;;;5089190;28;20493;-66
2023/08/13 05:57:50;;;;;;;12.23;11.23;;;19.70;99.90;;;;;;5089168;28;20442;-66
2023/08/13 06:00:19;;;;;;;12.47;11.47;;;19.70;99.90;;;;;;5092214;28;20495;-66
2023/08/13 06:02:47;;;;;;;13.90;12.70;;;19.80;99.90;;;;;;5089785;28;21261;-65
2023/08/13 06:05:15;;;;;;;13.40;12.40;;;19.80;99.90;;;;;;5092507;28;20465;-66
2023/08/13 06:07:43;;;;;;;15.30;13.80;;;19.90;99.90;;;;;;5092884;28;20469;-66
2023/08/13 06:10:11;;;;;;;15.23;13.83;;;20.00;99.90;;;;;;5092466;28;21130;-66
2023/08/13 06:12:39;;;;;;;14.03;12.90;;;20.00;99.90;;;;;;5091594;28;20435;-66
2023/08/13 06:15:09;;;;;;;13.97;12.67;;;20.10;99.90;;;;;;5092487;28;20462;-65
2023/08/13 06:17:42;;;;;;;17.37;15.83;;;20.10;99.90;;;;;;5092510;28;20477;-66
2023/08/13 06:20:11;;;;;;;14.23;13.03;;;20.20;99.90;;;;;;5092419;28;20808;-66
2023/08/13 06:22:39;;;;;;;13.17;11.97;;;20.30;99.90;;;;;;5091049;28;20513;-66
2023/08/13 06:25:07;;;;;;;13.43;11.80;;;20.40;99.90;;;;;;5092269;28;20458;-66
2023/08/13 06:27:35;;;;;;;12.20;11.27;;;20.40;99.90;;;;;;5092157;28;20500;-65
2023/08/13 06:30:04;;;;;;;12.53;11.53;;;20.50;99.90;;;;;;5092113;28;20537;-64
2023/08/13 06:32:39;;;;;;;12.77;11.57;;;20.50;99.90;;;;;;5091126;28;20513;-65
2023/08/13 06:35:07;;;;;;;12.83;11.50;;;20.60;99.90;;;;;;5092145;28;20968;-66
2023/08/13 06:37:35;;;;;;;12.27;11.17;;;20.70;99.90;;;;;;5091848;28;20443;-66
2023/08/13 06:40:23;;;;;;;11.70;10.77;;;20.80;99.90;;;;;;5092344;28;20442;-66
2023/08/13 06:42:51;;;;;;;12.20;11.10;;;20.80;99.90;;;;;;5090916;28;20897;-66
2023/08/13 06:45:23;;;;;;;12.23;11.33;;;20.80;99.90;;;;;;5092035;28;20505;-66
2023/08/13 06:47:52;;;;;;;12.33;11.30;;;20.90;99.90;;;;;;5091803;28;20446;-65
2023/08/13 06:50:20;;;;;;;13.53;12.53;;;20.90;99.90;;;;;;5091871;28;20529;-65
2023/08/13 06:52:48;;;;;;;13.33;12.33;;;20.80;99.90;;;;;;5090452;28;20462;-66
2023/08/13 06:55:16;;;;;;;13.27;12.13;;;20.70;99.90;;;;;;5091327;28;20478;-66
2023/08/13 06:57:46;;;;;;;14.13;12.93;;;20.70;99.90;;;;;;5091607;28;20959;-64
2023/08/13 07:00:15;;;;;;;13.77;12.43;;;20.60;99.90;;;;;;5091511;28;20434;-64
2023/08/13 07:02:43;;;;;;;12.30;11.23;;;20.50;99.90;;;;;;5090339;28;20489;-66
2023/08/13 07:05:14;;;;;;;13.13;11.93;;;20.50;99.90;;;;;;5091411;28;20474;-66
2023/08/13 07:07:42;;;;;;;13.93;12.87;;;20.50;99.90;;;;;;5091740;28;20434;-66
2023/08/13 07:10:10;;;;;;;17.47;15.77;;;20.60;99.90;;;;;;5090692;28;20545;-66
2023/08/13 07:12:38;;;;;;;13.60;12.50;;;20.60;99.90;;;;;;5090124;28;20512;-65
2023/08/13 07:15:07;;;;;;;12.77;11.83;;;20.80;99.90;;;;;;5091393;28;20553;-65
2023/08/13 07:17:37;;;;;;;13.73;12.63;;;20.90;99.90;;;;;;5091362;28;20438;-66
2023/08/13 07:20:09;;;;;;;13.40;12.37;;;21.00;99.90;;;;;;5091546;28;20477;-66
2023/08/13 07:22:39;;;;;;;12.27;11.37;;;21.10;99.90;;;;;;5089972;28;20577;-66
2023/08/13 07:25:08;;;;;;;12.00;11.00;;;21.20;99.90;;;;;;5091261;28;20557;-66
2023/08/13 07:27:36;;;;;;;11.83;10.80;;;21.30;99.90;;;;;;5090886;28;20450;-65
2023/08/13 07:30:05;;;;;;;13.17;12.10;;;21.30;99.90;;;;;;5091330;28;20450;-64
2023/08/13 07:32:33;;;;;;;13.93;12.73;;;21.40;99.90;;;;;;5090435;28;20510;-66
2023/08/13 07:35:01;;;;;;;12.03;11.03;;;21.60;99.90;;;;;;5090995;28;20465;-65
2023/08/13 07:37:29;;;;;;;11.50;10.50;;;21.70;99.90;;;;;;5090799;28;20507;-66
2023/08/13 07:39:58;;;;;;;9.23;8.43;;;22.00;99.90;;;;;;5091109;28;20445;-65
2023/08/13 07:42:26;;;;;;;8.60;8.00;;;22.20;99.90;;;;;;5089667;28;20524;-64
2023/08/13 07:44:54;;;;;;;8.57;7.80;;;22.40;99.90;;;;;;5090499;28;20489;-66
2023/08/13 07:47:22;;;;;;;9.00;8.30;;;22.50;99.90;;;;;;5090804;28;20543;-66
2023/08/13 07:49:51;;;;;;;10.30;9.60;;;22.60;99.90;;;;;;5090924;28;20525;-66
2023/08/13 07:52:18;;;;;;;10.93;10.03;;;22.60;99.90;;;;;;5090177;28;20474;-66
2023/08/13 07:54:46;;;;;;;9.80;9.00;;;22.60;99.90;;;;;;5089878;28;20557;-66
2023/08/13 07:57:16;;;;;;;9.30;8.60;;;22.70;99.90;;;;;;5090576;28;20895;-66
2023/08/13 07:59:43;;;;;;;8.40;7.73;;;22.90;99.90;;;;;;5090763;28;20438;-66
2023/08/13 08:02:12;;;;;;;8.98;8.35;;;23.10;99.90;;;;;;5089564;28;20960;-66
2023/08/13 08:04:42;;;;;;;8.03;7.43;;;23.20;99.90;;;;;;5089607;28;20256;-66
2023/08/13 08:07:10;;;;;;;7.67;7.03;;;23.30;99.90;;;;;;5090467;28;20525;-66
2023/08/13 08:09:37;;;;;;;6.20;5.80;;;23.50;99.90;;;;;;5090186;28;20454;-66
2023/08/13 08:12:06;;;;;;;6.60;6.10;;;23.70;99.90;;;;;;5089912;28;21171;-66
2023/08/13 08:14:36;;;;;;;7.50;6.93;;;23.80;99.90;;;;;;5089653;28;20458;-66
2023/08/13 08:17:07;;;;;;;6.70;6.20;;;23.90;99.90;;;;;;5090221;28;20482;-66
2023/08/13 08:19:35;;;;;;;7.03;6.50;;;24.10;99.90;;;;;;5090399;28;20438;-66
2023/08/13 08:22:03;;;;;;;6.50;6.00;;;24.30;99.90;;;;;;5089602;28;20556;-66
2023/08/13 08:24:31;;;;;;;5.80;5.30;;;24.20;99.90;;;;;;5089052;28;20539;-66
2023/08/13 08:26:59;;;;;;;6.23;5.73;;;24.20;99.90;;;;;;5090291;28;20481;-66
2023/08/13 08:29:27;;;;;;;6.90;6.30;;;23.90;99.90;;;;;;5090246;28;20449;-66
2023/08/13 08:31:56;;;;;;;7.23;6.53;;;23.90;99.90;;;;;;5090164;28;20438;-67
2023/08/13 08:34:25;;;;;;;6.13;5.60;;;23.80;99.90;;;;;;5088803;28;20473;-67
2023/08/13 08:36:57;;;;;;;5.87;5.33;;;24.00;99.90;;;;;;5089679;28;20450;-65
2023/08/13 08:39:25;;;;;;;5.60;5.17;;;24.10;99.90;;;;;;5090137;28;20533;-66
2023/08/13 08:41:56;;;;;;;6.03;5.53;;;24.30;99.90;;;;;;5090105;28;20499;-66
2023/08/13 08:44:25;;;;;;;6.20;5.60;;;24.10;99.90;;;;;;5088578;28;20543;-66
2023/08/13 08:46:56;;;;;;;5.67;5.17;;;24.20;99.90;;;;;;5089871;28;21009;-64
2023/08/13 08:49:25;;;;;;;7.23;5.50;;;24.40;99.90;;;;;;5089534;28;20525;-66
2023/08/13 08:51:53;;;;;;;6.30;5.73;;;24.80;99.90;;;;;;5089704;28;20534;-66
2023/08/13 08:54:21;;;;;;;5.80;5.20;;;25.10;99.90;;;;;;5087985;28;20446;-66
2023/08/13 08:56:49;;;;;;;5.63;5.07;;;25.50;99.90;;;;;;5089797;28;20522;-67
2023/08/13 08:59:17;;;;;;;6.23;5.63;;;25.40;99.90;;;;;;5089412;28;20442;-66
2023/08/13 09:01:45;;;;;;;6.50;6.00;;;25.50;99.90;;;;;;5090274;28;20442;-67
2023/08/13 09:04:14;;;;;;;5.77;5.27;;;25.60;99.90;;;;;;5088322;28;20571;-67
2023/08/13 09:06:58;;;;;;;7.30;5.63;;;25.60;99.90;;;;;;5089279;28;20470;-67
2023/08/13 09:09:28;;;;;;;5.20;4.70;;;25.50;99.90;;;;;;5089479;28;20951;-67
2023/08/13 09:11:57;;;;;;;5.07;4.67;;;25.50;99.90;;;;;;5089624;28;20492;-66
2023/08/13 09:14:26;;;;;;;4.30;3.90;;;25.40;99.90;;;;;;5088250;28;20434;-67
2023/08/13 09:16:55;;;;;;;4.90;4.50;;;25.30;99.90;;;;;;5089668;28;20477;-66
2023/08/13 09:19:26;;;;;;;7.03;5.43;;;25.50;99.90;;;;;;5089457;28;20507;-66
2023/08/13 09:21:55;;;;;;;5.27;4.87;;;25.30;99.90;;;;;;5089572;28;20442;-66
2023/08/13 09:24:34;;;;;;;5.40;5.00;;;25.10;99.90;;;;;;5088331;28;20895;-66
2023/08/13 09:27:03;;;;;;;5.90;5.50;;;24.90;99.90;;;;;;5089554;28;20450;-66
2023/08/13 09:29:32;;;;;;;4.93;4.50;;;25.30;99.90;;;;;;5090030;28;20495;-66
2023/08/13 09:32:01;;;;;;;5.60;5.10;;;25.90;99.90;;;;;;5089395;28;20947;-65
2023/08/13 09:34:33;;;;;;;5.10;4.70;;;26.30;99.90;;;;;;5090289;28;20460;-67
2023/08/13 09:37:01;;;;;;;5.03;4.17;;;26.70;99.90;;;;;;5093032;28;20449;-67
2023/08/13 09:39:31;;;;;;;4.40;3.57;;;27.40;99.90;;;;;;5092641;28;20465;-67
2023/08/13 09:42:00;;;;;;;3.87;3.50;;;28.40;99.90;;;;;;5093323;28;20544;-67
2023/08/13 09:44:30;;;;;;;3.60;3.40;;;29.20;99.90;;;;;;5092026;28;20555;-67
2023/08/13 09:47:00;;;;;;;2.93;2.73;;;29.80;99.90;;;;;;5093243;28;20529;-67
2023/08/13 09:49:31;;;;;;;3.53;3.23;;;30.00;99.90;;;;;;5093056;28;20499;-67
2023/08/13 09:52:00;;;;;;;3.50;3.20;;;30.40;99.90;;;;;;5092653;28;20450;-67
2023/08/13 09:54:36;;;;;;;3.70;3.40;;;30.90;99.90;;;;;;5091915;28;20461;-67
2023/08/13 09:57:07;;;;;;;4.30;3.97;;;31.10;99.90;;;;;;5092799;28;20453;-67
2023/08/13 09:59:36;;;;;;;5.37;3.90;;;30.70;99.90;;;;;;5092949;28;20517;-66
2023/08/13 10:02:07;;;;;;;4.60;4.30;;;30.20;99.90;;;;;;5092745;28;20438;-66
2023/08/13 10:04:38;;;;;;;4.27;3.80;;;29.60;99.90;;;;;;5091826;28;20562;-67
2023/08/13 10:07:07;;;;;;;4.90;4.40;;;29.70;99.90;;;;;;5092960;28;20446;-67
2023/08/13 10:09:36;;;;;;;4.13;3.83;;;29.70;99.90;;;;;;5092751;28;20500;-64
2023/08/13 10:12:06;;;;;;;4.00;3.70;;;29.90;99.90;;;;;;5092365;28;20491;-67
2023/08/13 10:14:34;;;;;;;4.17;3.80;;;29.70;99.90;;;;;;5091562;28;20482;-67
2023/08/13 10:17:04;;;;;;;4.80;4.40;;;29.90;99.90;;;;;;5092355;28;20437;-64
2023/08/13 10:19:35;;;;;;;5.63;5.13;;;29.50;99.90;;;;;;5092519;28;20828;-67
2023/08/13 10:22:04;;;;;;;4.70;4.10;;;29.20;99.90;;;;;;5092040;28;20447;-66
2023/08/13 10:24:32;;;;;;;4.53;4.20;;;29.40;99.90;;;;;;5091333;28;20488;-66
2023/08/13 10:27:00;;;;;;;5.13;4.33;;;29.00;99.90;;;;;;5092261;28;20530;-67
2023/08/13 10:29:37;;;;;;;4.80;4.30;;;29.00;99.90;;;;;;5092122;28;20442;-68
2023/08/13 10:32:13;;;;;;;4.70;4.30;;;29.30;99.90;;;;;;5092168;28;20481;-67
2023/08/13 10:34:46;;;;;;;5.00;4.60;;;29.20;99.90;;;;;;5091484;28;20466;-67
2023/08/13 10:37:18;;;;;;;5.30;4.83;;;28.60;99.90;;;;;;5092099;28;20446;-66
2023/08/13 10:39:47;;;;;;;5.10;4.67;;;28.50;99.90;;;;;;5092002;28;20522;-65
2023/08/13 10:42:50;;;;;;;5.27;4.80;;;28.40;99.90;;;;;;5091696;28;20439;-65
2023/08/13 10:45:20;;;;;;;4.77;4.37;;;28.20;99.90;;;;;;5090733;28;20513;-67
2023/08/13 10:47:50;;;;;;;6.23;4.70;;;28.10;99.90;;;;;;5091772;28;20992;-67
2023/08/13 10:50:24;;;;;;;5.47;4.50;;;28.50;99.90;;;;;;5091763;28;21207;-66
2023/08/13 10:52:54;;;;;;;5.33;4.83;;;28.70;99.90;;;;;;5090520;28;20438;-66
2023/08/13 10:55:26;;;;;;;4.60;4.20;;;28.60;99.90;;;;;;5071566;28;20885;-67
2023/08/13 10:57:54;;;;;;;5.50;5.10;;;28.50;99.90;;;;;;5071559;28;20439;-67
2023/08/13 11:00:24;;;;;;;5.10;4.70;;;28.50;99.90;;;;;;5071627;28;20496;-67
2023/08/13 11:02:52;;;;;;;4.60;4.20;;;28.20;99.90;;;;;;5070115;28;20447;-68
2023/08/13 11:05:22;;;;;;;5.70;5.20;;;27.70;99.90;;;;;;5071297;28;20504;-67
2023/08/13 11:07:51;;;;;;;5.60;5.20;;;27.30;99.90;;;;;;5071406;28;20443;-68
2023/08/13 11:10:21;;;;;;;5.70;5.20;;;27.10;99.90;;;;;;5081314;28;20461;-68
2023/08/13 11:12:50;;;;;;;6.43;5.83;;;26.70;99.90;;;;;;5090058;28;20446;-68
2023/08/13 11:15:18;;;;;;;5.60;5.10;;;26.40;99.90;;;;;;5091227;28;20458;-67
2023/08/13 11:17:50;;;;;;;5.23;4.67;;;26.40;99.90;;;;;;5091474;28;20545;-66
2023/08/13 11:20:19;;;;;;;6.30;5.00;;;26.30;99.90;;;;;;5091606;28;20442;-67
2023/08/13 11:22:48;;;;;;;5.13;4.70;;;26.40;99.90;;;;;;5090183;28;20461;-67
2023/08/13 11:25:16;;;;;;;6.20;5.60;;;26.30;99.90;;;;;;5091555;28;20539;-67
2023/08/13 11:27:46;;;;;;;4.73;4.37;;;26.40;99.90;;;;;;5091243;28;20454;-67
2023/08/13 11:30:14;;;;;;;6.57;5.97;;;26.50;99.90;;;;;;5091432;28;20967;-66
2023/08/13 11:32:42;;;;;;;5.73;5.23;;;26.70;99.90;;;;;;5090041;28;20507;-67
2023/08/13 11:35:10;;;;;;;4.77;4.23;;;26.80;99.90;;;;;;5091196;28;20512;-66
2023/08/13 11:37:39;;;;;;;4.90;4.50;;;27.20;99.90;;;;;;5091297;28;20854;-66
2023/08/13 11:40:10;;;;;;;5.00;4.60;;;27.60;99.90;;;;;;5090764;28;20480;-66
2023/08/13 11:42:50;;;;;;;5.43;5.03;;;27.60;99.90;;;;;;5089581;28;20434;-67
2023/08/13 11:45:20;;;;;;;5.20;4.70;;;27.80;99.90;;;;;;5090802;28;20543;-66
2023/08/13 11:47:49;;;;;;;5.37;4.77;;;27.40;99.90;;;;;;5090706;28;20438;-66
2023/08/13 11:50:21;;;;;;;5.40;5.00;;;27.20;99.90;;;;;;5090464;28;20443;-66
2023/08/13 11:53:03;;;;;;;5.03;4.60;;;27.30;99.90;;;;;;5089270;28;20931;-66
2023/08/13 11:55:32;;;;;;;5.77;5.27;;;26.90;99.90;;;;;;5090574;28;20520;-66
2023/08/13 11:58:00;;;;;;;5.37;4.97;;;26.80;99.90;;;;;;5090437;28;20438;-66
2023/08/13 12:00:29;;;;;;;5.87;5.27;;;26.80;99.90;;;;;;5090310;28;20442;-66
2023/08/13 12:02:58;;;;;;;6.93;6.23;;;26.80;99.90;;;;;;5088852;28;20447;-66
2023/08/13 12:05:27;;;;;;;6.47;5.63;;;27.10;99.90;;;;;;5090256;28;20482;-67
2023/08/13 12:07:56;;;;;;;6.33;5.83;;;27.80;99.90;;;;;;5090277;28;20936;-67
2023/08/13 12:10:25;;;;;;;7.97;6.40;;;28.00;99.90;;;;;;5090410;28;20546;-66
2023/08/13 12:12:53;;;;;;;8.53;7.73;;;28.10;99.90;;;;;;5089041;28;20495;-67
2023/08/13 12:15:23;;;;;;;6.77;6.23;;;28.90;99.90;;;;;;5089920;28;20468;-66
2023/08/13 12:17:52;;;;;;;6.27;5.67;;;29.60;99.90;;;;;;5089941;28;20477;-66
2023/08/13 12:20:21;;;;;;;6.30;5.70;;;29.80;99.90;;;;;;5090426;28;20442;-66
2023/08/13 12:22:49;;;;;;;6.77;6.20;;;29.70;99.90;;;;;;5088904;28;20869;-66
2023/08/13 12:25:17;;;;;;;6.33;5.53;;;29.80;99.90;;;;;;5090098;28;20513;-66
2023/08/13 12:27:47;;;;;;;5.80;5.30;;;30.10;99.90;;;;;;5090177;28;20533;-66
2023/08/13 12:30:15;;;;;;;5.50;4.77;;;30.10;99.90;;;;;;5089958;28;20514;-67
2023/08/13 12:32:43;;;;;;;5.23;4.77;;;30.40;99.90;;;;;;5088581;28;20503;-67
2023/08/13 12:35:13;;;;;;;5.87;5.17;;;30.20;99.90;;;;;;5089832;28;20874;-68
2023/08/13 12:37:41;;;;;;;4.70;4.30;;;30.80;99.90;;;;;;5090100;28;20442;-65
2023/08/13 12:40:10;;;;;;;5.30;4.80;;;31.20;99.90;;;;;;5089867;28;20491;-67
2023/08/13 12:42:38;;;;;;;5.73;4.43;;;31.40;99.90;;;;;;5088661;28;20449;-67
2023/08/13 12:45:07;;;;;;;4.83;4.40;;;31.40;99.90;;;;;;5089608;28;20462;-67